createdAt,value
2023-03-02T00:01:47.421Z,38.00
2023-03-02T00:04:29.131Z,34.90
2023-03-02T00:07:01.761Z,32.42
2023-03-02T00:09:29.846Z,33.80
2023-03-02T00:11:57.511Z,32.10
2023-03-02T00:14:24.892Z,37.60
2023-03-02T00:16:52.198Z,32.00
2023-03-02T00:19:19.164Z,34.53
2023-03-02T00:21:46.347Z,29.48
2023-03-02T00:24:15.705Z,27.45
2023-03-02T00:26:42.630Z,25.98
2023-03-02T00:29:09.862Z,31.23
2023-03-02T00:31:38.195Z,28.48
2023-03-02T00:34:05.129Z,24.40
2023-03-02T00:36:32.571Z,25.75
2023-03-02T00:38:59.732Z,26.67
2023-03-02T00:41:26.712Z,24.80
2023-03-02T00:43:53.736Z,26.80
2023-03-02T00:46:24.136Z,21.92
2023-03-02T00:48:52.734Z,23.75
2023-03-02T00:51:20.123Z,24.60
2023-03-02T00:53:47.200Z,23.20
2023-03-02T00:56:14.080Z,22.75
2023-03-02T00:58:46.657Z,21.92
2023-03-02T01:01:14.158Z,22.38
2023-03-02T01:03:45.696Z,20.63
2023-03-02T01:06:20.478Z,18.40
2023-03-02T01:08:48.014Z,23.80
2023-03-02T01:11:18.696Z,19.35
2023-03-02T01:13:46.210Z,14.75
2023-03-02T01:16:13.819Z,17.92
2023-03-02T01:18:40.940Z,23.17
2023-03-02T01:21:17.011Z,14.52
2023-03-02T01:23:44.227Z,17.55
2023-03-02T01:26:11.858Z,16.40
2023-03-02T01:28:39.002Z,19.10
2023-03-02T01:31:06.205Z,15.85
2023-03-02T01:33:33.314Z,16.67
2023-03-02T01:36:00.602Z,15.38
2023-03-02T01:38:28.227Z,14.90
2023-03-02T01:40:55.401Z,15.30
2023-03-02T01:43:22.595Z,17.50
2023-03-02T01:46:02.096Z,19.35
2023-03-02T01:49:04.069Z,16.83
2023-03-02T01:51:47.526Z,16.42
2023-03-02T01:54:23.264Z,17.02
2023-03-02T01:57:00.365Z,16.67
2023-03-02T01:59:32.282Z,17.55
2023-03-02T02:02:04.574Z,15.88
2023-03-02T02:04:33.484Z,18.05
2023-03-02T02:07:05.161Z,16.70
2023-03-02T02:09:39.661Z,17.95
2023-03-02T02:12:13.559Z,18.58
2023-03-02T02:14:41.606Z,16.45
2023-03-02T02:17:09.412Z,18.48
2023-03-02T02:19:51.689Z,19.08
2023-03-02T02:22:38.228Z,17.83
2023-03-02T02:25:22.663Z,19.00
2023-03-02T02:27:50.393Z,17.17
2023-03-02T02:30:19.023Z,19.73
2023-03-02T02:32:48.614Z,16.88
2023-03-02T02:35:27.515Z,16.55
2023-03-02T02:38:02.749Z,16.13
2023-03-02T02:40:51.111Z,17.30
2023-03-02T02:43:21.633Z,15.75
2023-03-02T02:45:52.941Z,17.42
2023-03-02T02:48:24.596Z,16.98
2023-03-02T02:51:00.494Z,19.90
2023-03-02T02:53:40.608Z,20.23
2023-03-02T02:56:10.840Z,19.40
2023-03-02T02:58:46.508Z,17.05
2023-03-02T03:01:17.572Z,16.97
2023-03-02T03:04:00.286Z,16.77
2023-03-02T03:06:53.504Z,17.83
2023-03-02T03:09:20.862Z,16.13
2023-03-02T03:12:00.667Z,20.73
2023-03-02T03:14:40.841Z,15.82
2023-03-02T03:17:13.294Z,18.33
2023-03-02T03:19:50.319Z,19.00
2023-03-02T03:22:17.888Z,19.65
2023-03-02T03:24:47.312Z,17.00
2023-03-02T03:27:16.569Z,18.67
2023-03-02T03:29:50.558Z,19.75
2023-03-02T03:32:20.775Z,19.77
2023-03-02T03:34:50.160Z,19.13
2023-03-02T03:37:25.628Z,19.27
2023-03-02T03:39:53.186Z,20.35
2023-03-02T03:42:21.053Z,18.92
2023-03-02T03:44:48.076Z,23.92
2023-03-02T03:47:15.218Z,18.83
2023-03-02T03:49:42.197Z,19.10
2023-03-02T03:52:09.740Z,19.83
2023-03-02T03:54:36.770Z,20.40
2023-03-02T03:57:03.902Z,22.73
2023-03-02T03:59:31.030Z,16.35
2023-03-02T04:02:03.038Z,19.45
2023-03-02T04:04:35.641Z,19.25
2023-03-02T04:07:14.012Z,19.45
2023-03-02T04:09:42.020Z,23.15
2023-03-02T04:12:12.175Z,27.75
2023-03-02T04:14:43.116Z,22.63
2023-03-02T04:17:11.161Z,25.80
2023-03-02T04:19:41.895Z,24.00
2023-03-02T04:22:09.915Z,25.80
2023-03-02T04:24:36.752Z,27.15
2023-03-02T04:27:04.870Z,20.05
2023-03-02T04:29:33.419Z,19.90
2023-03-02T04:32:02.354Z,22.75
2023-03-02T04:34:30.916Z,18.67
2023-03-02T04:36:58.248Z,22.33
2023-03-02T04:39:25.885Z,23.50
2023-03-02T04:41:53.824Z,25.50
2023-03-02T04:44:21.191Z,20.55
2023-03-02T04:46:49.589Z,24.52
2023-03-02T04:49:19.306Z,24.30
2023-03-02T04:51:48.724Z,25.35
2023-03-02T04:54:20.465Z,21.75
2023-03-02T04:56:48.587Z,22.08
2023-03-02T04:59:17.442Z,26.98
2023-03-02T05:01:45.088Z,30.38
2023-03-02T05:04:13.287Z,24.63
2023-03-02T05:06:40.738Z,29.88
2023-03-02T05:09:08.331Z,30.05
2023-03-02T05:11:35.993Z,32.45
2023-03-02T05:14:07.027Z,27.25
2023-03-02T05:16:37.420Z,30.67
2023-03-02T05:19:07.091Z,26.25
2023-03-02T05:21:34.564Z,25.88
2023-03-02T05:24:03.395Z,25.88
2023-03-02T05:26:30.713Z,27.33
2023-03-02T05:28:58.027Z,29.23
2023-03-02T05:31:35.994Z,23.55
2023-03-02T05:34:07.651Z,29.33
2023-03-02T05:36:35.452Z,30.42
2023-03-02T05:39:03.851Z,28.02
2023-03-02T05:41:31.095Z,25.63
2023-03-02T05:43:58.070Z,39.42
2023-03-02T05:46:25.691Z,29.63
2023-03-02T05:48:52.962Z,25.33
2023-03-02T05:51:20.058Z,29.58
2023-03-02T05:53:47.654Z,30.70
2023-03-02T05:56:14.729Z,35.15
2023-03-02T05:58:41.630Z,32.25
2023-03-02T06:01:13.569Z,28.73
2023-03-02T06:03:43.278Z,31.27
2023-03-02T06:06:13.817Z,26.45
2023-03-02T06:08:42.059Z,28.52
2023-03-02T06:11:10.418Z,36.25
2023-03-02T06:13:37.377Z,34.10
2023-03-02T06:16:05.190Z,38.92
2023-03-02T06:18:34.082Z,32.47
2023-03-02T06:21:01.704Z,31.33
2023-03-02T06:23:29.078Z,29.33
2023-03-02T06:25:56.340Z,34.85
2023-03-02T06:28:23.476Z,30.20
2023-03-02T06:30:52.308Z,33.53
2023-03-02T06:33:21.470Z,34.70
2023-03-02T06:35:50.237Z,28.30
2023-03-02T06:38:17.757Z,39.78
2023-03-02T06:40:44.938Z,38.72
2023-03-02T06:43:12.108Z,35.08
2023-03-02T06:45:39.049Z,38.67
2023-03-02T06:48:07.804Z,40.75
2023-03-02T06:50:35.434Z,42.67
2023-03-02T06:53:02.685Z,38.88
2023-03-02T06:55:29.683Z,36.88
2023-03-02T06:57:56.899Z,39.30
2023-03-02T07:00:27.969Z,36.78
2023-03-02T07:02:56.861Z,36.00
2023-03-02T07:05:24.662Z,41.72
2023-03-02T07:07:52.235Z,37.33
2023-03-02T07:10:19.564Z,31.17
2023-03-02T07:12:46.833Z,34.65
2023-03-02T07:15:14.472Z,33.20
2023-03-02T07:17:43.945Z,35.63
2023-03-02T07:20:14.154Z,28.25
2023-03-02T07:22:42.368Z,31.67
2023-03-02T07:25:11.141Z,31.30
2023-03-02T07:27:38.716Z,32.22
2023-03-02T07:30:07.394Z,32.95
2023-03-02T07:32:34.792Z,31.52
2023-03-02T07:35:01.830Z,30.95
2023-03-02T07:37:28.892Z,30.50
2023-03-02T07:39:55.788Z,30.85
2023-03-02T07:42:23.013Z,31.05
2023-03-02T07:44:54.185Z,32.97
2023-03-02T07:47:21.774Z,31.05
2023-03-02T07:49:48.935Z,29.50
2023-03-02T07:52:15.897Z,33.20
2023-03-02T07:54:43.090Z,32.72
2023-03-02T07:57:10.058Z,35.95
2023-03-02T07:59:37.042Z,33.28
2023-03-02T08:02:04.222Z,31.30
2023-03-02T08:04:31.720Z,31.67
2023-03-02T08:06:58.736Z,31.65
2023-03-02T08:09:25.671Z,34.05
2023-03-02T08:11:52.597Z,31.58
2023-03-02T08:14:19.545Z,29.92
2023-03-02T08:16:46.538Z,30.42
2023-03-02T08:19:13.531Z,27.83
2023-03-02T08:21:43.986Z,30.52
2023-03-02T08:24:12.345Z,29.73
2023-03-02T08:26:39.804Z,26.10
2023-03-02T08:29:07.447Z,32.78
2023-03-02T08:31:35.036Z,28.23
2023-03-02T08:34:02.542Z,30.20
2023-03-02T08:36:29.598Z,27.27
2023-03-02T08:38:56.455Z,33.42
2023-03-02T08:41:24.208Z,30.17
2023-03-02T08:43:54.115Z,28.75
2023-03-02T08:46:21.266Z,31.48
2023-03-02T08:48:51.217Z,31.15
2023-03-02T08:51:22.595Z,34.10
2023-03-02T08:53:51.791Z,31.90
2023-03-02T08:56:28.962Z,31.02
2023-03-02T08:59:00.383Z,29.35
2023-03-02T09:01:35.570Z,28.67
2023-03-02T09:04:06.397Z,26.73
2023-03-02T09:06:37.989Z,27.08
2023-03-02T09:09:06.453Z,30.55
2023-03-02T09:11:33.972Z,29.63
2023-03-02T09:14:01.190Z,25.33
2023-03-02T09:16:28.299Z,27.58
2023-03-02T09:18:55.476Z,25.33
2023-03-02T09:21:22.834Z,34.67
2023-03-02T09:23:53.815Z,22.83
2023-03-02T09:26:20.776Z,24.77
2023-03-02T09:28:48.544Z,25.17
2023-03-02T09:31:15.396Z,22.38
2023-03-02T09:33:42.400Z,25.05
2023-03-02T09:36:12.002Z,25.27
2023-03-02T09:38:38.911Z,23.75
2023-03-02T09:41:20.788Z,21.05
2023-03-02T09:44:02.725Z,20.40
2023-03-02T09:46:49.991Z,22.83
2023-03-02T09:49:54.148Z,20.15
2023-03-02T09:52:45.189Z,19.95
2023-03-02T09:55:24.071Z,20.52
2023-03-02T09:57:52.906Z,19.15
2023-03-02T10:00:29.037Z,20.63
2023-03-02T10:03:19.920Z,19.80
2023-03-02T10:05:53.849Z,17.45
2023-03-02T10:08:29.530Z,15.05
2023-03-02T10:11:39.724Z,17.50
2023-03-02T10:14:25.165Z,15.63
2023-03-02T10:17:42.229Z,13.82
2023-03-02T10:20:19.443Z,16.52
2023-03-02T10:22:53.156Z,17.50
2023-03-02T10:25:39.556Z,11.70
2023-03-02T10:28:29.157Z,13.38
2023-03-02T10:31:13.353Z,11.98
2023-03-02T10:33:41.949Z,12.27
2023-03-02T10:36:36.040Z,11.80
2023-03-02T10:39:10.253Z,11.70
2023-03-02T10:41:45.229Z,9.27
2023-03-02T10:44:22.267Z,10.85
2023-03-02T10:46:49.358Z,12.52
2023-03-02T10:49:43.496Z,12.20
2023-03-02T10:52:17.229Z,10.40
2023-03-02T10:54:44.269Z,11.63
2023-03-02T10:57:40.671Z,10.88
2023-03-02T11:00:21.604Z,8.90
2023-03-02T11:03:06.553Z,12.98
2023-03-02T11:05:37.388Z,9.93
2023-03-02T11:08:09.641Z,10.15
2023-03-02T11:10:40.724Z,13.27
2023-03-02T11:13:28.764Z,8.70
2023-03-02T11:16:25.768Z,10.18
2023-03-02T11:19:03.880Z,11.63
2023-03-02T11:22:28.561Z,10.00
2023-03-02T11:24:58.650Z,10.05
2023-03-02T11:27:30.469Z,10.25
2023-03-02T11:30:03.803Z,11.35
2023-03-02T11:33:15.261Z,12.35
2023-03-02T11:35:59.580Z,10.98
2023-03-02T11:38:38.758Z,10.93
2023-03-02T11:41:31.250Z,13.80
2023-03-02T11:44:12.636Z,11.27
2023-03-02T11:46:39.960Z,11.68
2023-03-02T11:49:19.840Z,12.48
2023-03-02T11:51:58.893Z,11.52
2023-03-02T11:54:46.052Z,11.00
2023-03-02T11:57:27.222Z,9.73
2023-03-02T11:59:55.294Z,7.97
2023-03-02T12:02:22.651Z,11.15
2023-03-02T12:04:49.813Z,10.48
2023-03-02T12:07:28.139Z,10.52
2023-03-02T12:10:22.228Z,14.20
2023-03-02T12:13:06.891Z,8.23
2023-03-02T12:15:39.962Z,11.38
2023-03-02T12:18:30.941Z,11.68
2023-03-02T12:21:18.930Z,9.65
2023-03-02T12:23:51.854Z,8.85
2023-03-02T12:26:21.907Z,12.82
2023-03-02T12:29:13.833Z,11.50
2023-03-02T12:31:56.604Z,8.55
2023-03-02T12:34:43.986Z,8.85
2023-03-02T12:37:49.360Z,7.70
2023-03-02T12:40:33.695Z,7.45
2023-03-02T12:43:33.039Z,10.40
2023-03-02T12:46:19.419Z,8.75
2023-03-02T12:49:13.372Z,8.48
2023-03-02T12:51:48.712Z,10.18
2023-03-02T12:54:23.658Z,10.25
2023-03-02T12:56:50.849Z,8.90
2023-03-02T12:59:25.880Z,8.90
2023-03-02T13:02:05.277Z,8.02
2023-03-02T13:04:32.497Z,8.55
2023-03-02T13:06:59.421Z,10.10
2023-03-02T13:09:26.415Z,13.27
2023-03-02T13:11:55.117Z,9.95
2023-03-02T13:14:28.764Z,12.13
2023-03-02T13:17:05.836Z,14.93
2023-03-02T13:19:33.732Z,12.45
2023-03-02T13:22:01.079Z,15.60
2023-03-02T13:24:45.794Z,16.42
2023-03-02T13:27:22.295Z,15.80
2023-03-02T13:32:22.939Z,14.20
2023-03-02T13:34:59.209Z,19.50
2023-03-02T13:37:38.803Z,17.08
2023-03-02T13:40:38.997Z,21.88
2023-03-02T13:43:39.272Z,24.30
2023-03-02T13:46:28.572Z,25.17
2023-03-02T13:49:11.045Z,22.50
2023-03-02T13:51:49.054Z,24.85
2023-03-02T13:54:28.759Z,25.42
2023-03-02T13:56:59.258Z,30.42
2023-03-02T13:59:26.328Z,24.95
2023-03-02T14:01:53.269Z,35.03
2023-03-02T14:04:25.482Z,34.45
2023-03-02T14:06:54.746Z,41.22
2023-03-02T14:09:21.890Z,47.85
2023-03-02T14:11:53.314Z,43.25
2023-03-02T14:14:24.157Z,54.67
2023-03-02T14:16:52.098Z,46.45
2023-03-02T14:19:20.179Z,45.13
2023-03-02T14:21:47.980Z,44.33
2023-03-02T14:24:15.181Z,44.53
2023-03-02T14:26:45.176Z,44.42
2023-03-02T14:29:25.220Z,50.97
2023-03-02T14:31:54.116Z,54.85
2023-03-02T14:34:21.227Z,52.30
2023-03-02T14:36:52.847Z,56.05
2023-03-02T14:39:34.376Z,52.58
2023-03-02T14:42:01.593Z,53.50
2023-03-02T14:44:28.595Z,57.00
2023-03-02T14:46:57.044Z,57.20
2023-03-02T14:49:25.100Z,57.53
2023-03-02T14:52:34.016Z,61.03
2023-03-02T14:55:06.960Z,63.00
2023-03-02T14:57:38.541Z,66.68
2023-03-02T15:00:07.918Z,62.58
2023-03-02T15:02:35.043Z,60.50
2023-03-02T15:05:02.170Z,66.55
2023-03-02T15:07:29.176Z,66.90
2023-03-02T15:09:58.148Z,65.60
2023-03-02T15:12:25.762Z,61.78
2023-03-02T15:14:53.047Z,62.22
2023-03-02T15:17:20.483Z,69.97
2023-03-02T15:19:48.701Z,61.63
2023-03-02T15:22:16.138Z,96.55
2023-03-02T15:24:43.123Z,78.90
2023-03-02T15:27:10.009Z,72.82
2023-03-02T15:29:37.008Z,70.25
2023-03-02T15:32:04.233Z,70.95
2023-03-02T15:34:31.319Z,77.22
2023-03-02T15:36:58.288Z,82.68
2023-03-02T15:39:25.329Z,77.50
2023-03-02T15:41:53.826Z,80.20
2023-03-02T15:44:23.900Z,78.25
2023-03-02T15:46:54.297Z,83.93
2023-03-02T15:49:24.817Z,84.25
2023-03-02T15:51:52.709Z,84.55
2023-03-02T15:54:20.641Z,79.10
2023-03-02T15:56:54.705Z,84.72
2023-03-02T15:59:24.704Z,88.35
2023-03-02T16:01:52.056Z,84.72
2023-03-02T16:04:19.110Z,89.20
2023-03-02T16:06:46.196Z,74.80
2023-03-02T16:09:13.325Z,75.82
2023-03-02T16:11:40.262Z,78.70
2023-03-02T16:14:07.203Z,68.45
2023-03-02T16:16:34.319Z,74.78
2023-03-02T16:19:01.625Z,81.07
2023-03-02T16:21:29.015Z,78.30
2023-03-02T16:24:03.072Z,91.35
2023-03-02T16:26:35.149Z,94.22
2023-03-02T16:29:03.093Z,87.10
2023-03-02T16:31:33.221Z,88.40
2023-03-02T16:34:03.841Z,91.07
2023-03-02T16:36:31.117Z,87.20
2023-03-02T16:38:57.954Z,91.57
2023-03-02T16:41:25.735Z,99.15
2023-03-02T16:43:56.643Z,88.93
2023-03-02T16:46:27.725Z,94.55
2023-03-02T16:48:55.135Z,100.45
2023-03-02T16:51:22.177Z,94.80
2023-03-02T16:53:49.719Z,99.68
2023-03-02T16:56:16.910Z,105.63
2023-03-02T16:58:44.050Z,100.63
2023-03-02T17:01:19.005Z,92.43
2023-03-02T17:03:49.336Z,100.63
2023-03-02T17:06:20.144Z,111.32
2023-03-02T17:08:47.034Z,106.13
2023-03-02T17:11:14.145Z,104.40
2023-03-02T17:13:41.169Z,102.55
2023-03-02T17:16:08.951Z,106.57
2023-03-02T17:18:36.146Z,116.60
2023-03-02T17:21:05.399Z,106.00
2023-03-02T17:23:33.005Z,122.57
2023-03-02T17:25:59.928Z,113.20
2023-03-02T17:28:26.814Z,110.45
2023-03-02T17:30:53.754Z,112.70
2023-03-02T17:33:20.697Z,107.97
2023-03-02T17:35:47.884Z,112.15
2023-03-02T17:38:15.573Z,107.40
2023-03-02T17:40:43.079Z,109.63
2023-03-02T17:43:11.474Z,109.07
2023-03-02T17:45:39.001Z,108.63
2023-03-02T17:48:06.066Z,109.72
2023-03-02T17:50:33.003Z,103.50
2023-03-02T17:53:00.134Z,101.55
2023-03-02T17:55:27.166Z,89.10
2023-03-02T17:57:54.284Z,127.53
2023-03-02T18:00:23.413Z,95.07
2023-03-02T18:02:51.719Z,79.03
2023-03-02T18:05:19.103Z,81.45
2023-03-02T18:07:46.042Z,78.68
2023-03-02T18:10:14.206Z,77.90
2023-03-02T18:12:41.341Z,79.22
2023-03-02T18:15:09.269Z,82.45
2023-03-02T18:17:36.171Z,69.97
2023-03-02T18:20:04.076Z,73.15
2023-03-02T18:22:31.095Z,85.00
2023-03-02T18:24:58.225Z,96.30
2023-03-02T18:27:25.118Z,87.50
2023-03-02T18:29:52.257Z,81.45
2023-03-02T18:32:19.184Z,71.80
2023-03-02T18:34:46.193Z,64.00
2023-03-02T18:37:13.390Z,108.85
2023-03-02T18:39:40.342Z,80.55
2023-03-02T18:42:07.972Z,71.85
2023-03-02T18:44:35.202Z,67.30
2023-03-02T18:47:02.752Z,65.90
2023-03-02T18:49:29.958Z,75.00
2023-03-02T18:51:56.937Z,55.80
2023-03-02T18:54:24.595Z,79.22
2023-03-02T18:56:51.811Z,68.10
2023-03-02T18:59:18.988Z,61.00
2023-03-02T19:01:47.036Z,58.03
2023-03-02T19:04:15.162Z,69.05
2023-03-02T19:06:43.777Z,63.00
2023-03-02T19:09:11.464Z,59.85
2023-03-02T19:11:38.777Z,68.57
2023-03-02T19:14:05.733Z,66.30
2023-03-02T19:16:32.705Z,66.07
2023-03-02T19:18:59.835Z,70.03
2023-03-02T19:21:26.917Z,116.07
2023-03-02T19:23:54.418Z,76.72
2023-03-02T19:26:21.533Z,70.75
2023-03-02T19:28:48.731Z,66.28
2023-03-02T19:31:16.195Z,67.78
2023-03-02T19:33:45.137Z,60.80
2023-03-02T19:36:13.352Z,60.58
2023-03-02T19:38:42.822Z,56.03
2023-03-02T19:41:13.748Z,50.70
2023-03-02T19:43:41.895Z,45.67
2023-03-02T19:46:10.994Z,50.75
2023-03-02T19:48:38.825Z,46.45
2023-03-02T19:51:07.835Z,46.45
2023-03-02T19:53:37.605Z,37.70
2023-03-02T19:56:08.653Z,36.55
2023-03-02T19:58:36.277Z,34.15
2023-03-02T20:01:04.109Z,34.85
2023-03-02T20:03:31.394Z,31.52
2023-03-02T20:05:59.507Z,30.45
2023-03-02T20:08:27.044Z,32.40
2023-03-02T20:10:54.031Z,27.95
2023-03-02T20:13:21.491Z,25.25
2023-03-02T20:15:48.547Z,23.50
2023-03-02T20:18:19.148Z,20.67
2023-03-02T20:20:47.143Z,22.13
2023-03-02T20:23:14.896Z,18.95
2023-03-02T20:25:42.514Z,20.88
2023-03-02T20:28:12.726Z,22.90
2023-03-02T20:30:52.010Z,19.33
2023-03-02T20:33:22.455Z,22.63
2023-03-02T20:35:49.831Z,20.00
2023-03-02T20:38:42.378Z,18.02
2023-03-02T20:41:11.666Z,14.35
2023-03-02T20:43:40.895Z,18.90
2023-03-02T20:46:09.766Z,13.05
2023-03-02T20:48:36.849Z,18.70
2023-03-02T20:51:04.291Z,16.77
2023-03-02T20:53:31.567Z,19.27
2023-03-02T20:55:58.872Z,14.05
2023-03-02T20:58:25.966Z,18.15
2023-03-02T21:00:53.795Z,13.00
2023-03-02T21:03:21.036Z,13.45
2023-03-02T21:05:48.512Z,13.90
2023-03-02T21:08:15.622Z,14.43
2023-03-02T21:10:44.590Z,12.93
2023-03-02T21:13:12.396Z,13.65
2023-03-02T21:15:40.950Z,14.65
2023-03-02T21:18:08.064Z,14.93
2023-03-02T21:20:36.090Z,15.32
2023-03-02T21:23:03.615Z,17.25
2023-03-02T21:25:30.997Z,18.50
2023-03-02T21:27:58.901Z,18.20
2023-03-02T21:30:34.103Z,17.83
2023-03-02T21:33:01.922Z,14.52
2023-03-02T21:35:29.540Z,13.77
2023-03-02T21:38:04.744Z,13.30
2023-03-02T21:40:42.903Z,12.77
2023-03-02T21:43:09.905Z,13.23
2023-03-02T21:45:38.503Z,18.52
2023-03-02T21:48:07.449Z,12.55
2023-03-02T21:50:37.545Z,13.82
2023-03-02T21:53:05.044Z,15.68
2023-03-02T21:55:32.728Z,12.57
2023-03-02T21:58:00.451Z,14.38
2023-03-02T22:00:30.306Z,13.45
2023-03-02T22:02:57.307Z,11.20
2023-03-02T22:05:24.671Z,12.75
2023-03-02T22:07:51.641Z,12.45
2023-03-02T22:10:48.706Z,13.60
2023-03-02T22:13:26.661Z,12.57
2023-03-02T22:16:14.614Z,11.93
2023-03-02T22:18:42.900Z,12.35
2023-03-02T22:21:43.671Z,11.90
2023-03-02T22:24:29.421Z,14.15
2023-03-02T22:27:24.065Z,12.77
2023-03-02T22:29:54.628Z,12.82
2023-03-02T22:32:27.289Z,13.90
2023-03-02T22:35:00.377Z,14.55
2023-03-02T22:37:34.349Z,15.98
2023-03-02T22:40:18.346Z,17.15
2023-03-02T22:42:45.463Z,14.65
2023-03-02T22:45:17.086Z,15.38
2023-03-02T22:47:48.148Z,14.23
2023-03-02T22:50:26.656Z,15.95
2023-03-02T22:52:56.867Z,14.93
2023-03-02T22:55:38.773Z,16.73
2023-03-02T22:58:29.601Z,16.98
2023-03-02T23:01:01.831Z,14.90
2023-03-02T23:03:41.332Z,16.67
2023-03-02T23:06:27.567Z,18.20
2023-03-02T23:09:01.072Z,17.23
2023-03-02T23:11:29.839Z,16.05
2023-03-02T23:13:56.819Z,18.10
2023-03-02T23:16:27.530Z,16.95
2023-03-02T23:18:59.274Z,15.88
2023-03-02T23:21:35.450Z,16.02
2023-03-02T23:24:02.734Z,19.05
2023-03-02T23:26:29.905Z,17.40
2023-03-02T23:28:56.970Z,18.58
2023-03-02T23:31:23.985Z,19.23
2023-03-02T23:33:51.238Z,19.38
2023-03-02T23:36:21.133Z,17.00
2023-03-02T23:38:49.379Z,19.77
2023-03-02T23:41:16.971Z,17.92
2023-03-02T23:43:44.250Z,18.42
2023-03-02T23:46:14.118Z,19.63
2023-03-02T23:48:42.238Z,17.95
2023-03-02T23:51:10.494Z,18.42
2023-03-02T23:53:37.531Z,20.88
2023-03-02T23:56:04.842Z,19.85
2023-03-02T23:58:32.103Z,16.98
